createdAt,value
2024-01-06T00:00:41.116Z,6.90
2024-01-06T00:03:08.359Z,6.90
2024-01-06T00:05:35.523Z,6.90
2024-01-06T00:08:02.600Z,6.80
2024-01-06T00:10:29.756Z,6.80
2024-01-06T00:12:58.869Z,6.80
2024-01-06T00:16:09.614Z,6.80
2024-01-06T00:18:36.891Z,6.80
2024-01-06T00:21:14.213Z,6.80
2024-01-06T00:23:44.295Z,6.80
2024-01-06T00:26:11.968Z,6.80
2024-01-06T00:28:40.463Z,6.80
2024-01-06T00:31:08.530Z,6.80
2024-01-06T00:33:35.915Z,6.80
2024-01-06T00:36:03.162Z,6.80
2024-01-06T00:38:30.272Z,6.80
2024-01-06T00:40:57.281Z,6.80
2024-01-06T00:43:24.345Z,6.80
2024-01-06T00:45:51.428Z,6.80
2024-01-06T00:48:18.713Z,6.80
2024-01-06T00:50:45.768Z,6.80
2024-01-06T00:53:13.767Z,6.80
2024-01-06T00:55:40.764Z,6.90
2024-01-06T00:58:07.823Z,6.80
2024-01-06T01:00:35.115Z,6.90
2024-01-06T01:03:02.213Z,6.90
2024-01-06T01:05:29.579Z,6.90
2024-01-06T01:07:56.636Z,6.90
2024-01-06T01:10:23.696Z,6.90
2024-01-06T01:12:50.841Z,6.90
2024-01-06T01:15:18.008Z,6.90
2024-01-06T01:17:45.444Z,6.90
2024-01-06T01:20:12.743Z,6.90
2024-01-06T01:22:39.819Z,6.90
2024-01-06T01:25:09.285Z,6.90
2024-01-06T01:27:36.486Z,6.90
2024-01-06T01:30:04.558Z,6.90
2024-01-06T01:32:31.861Z,6.90
2024-01-06T01:34:59.101Z,6.90
2024-01-06T01:37:26.196Z,6.90
2024-01-06T01:39:53.290Z,6.90
2024-01-06T01:42:20.402Z,7.00
2024-01-06T01:44:47.440Z,7.00
2024-01-06T01:47:19.498Z,6.90
2024-01-06T01:49:48.327Z,6.90
2024-01-06T01:52:16.369Z,6.90
2024-01-06T01:54:44.863Z,6.90
2024-01-06T01:58:14.467Z,6.90
2024-01-06T02:00:41.766Z,6.90
2024-01-06T02:03:27.530Z,6.90
2024-01-06T02:05:55.107Z,6.90
2024-01-06T02:08:22.333Z,6.90
2024-01-06T02:10:49.629Z,6.90
2024-01-06T02:13:16.743Z,6.90
2024-01-06T02:15:43.878Z,7.00
2024-01-06T02:18:11.318Z,6.90
2024-01-06T02:20:38.664Z,7.00
2024-01-06T02:23:05.934Z,7.00
2024-01-06T02:25:34.446Z,7.00
2024-01-06T02:28:01.497Z,6.90
2024-01-06T02:30:28.730Z,6.90
2024-01-06T02:32:56.002Z,7.00
2024-01-06T02:35:23.117Z,6.90
2024-01-06T02:37:50.167Z,7.00
2024-01-06T02:40:17.402Z,6.90
2024-01-06T02:42:44.448Z,6.90
2024-01-06T02:45:11.578Z,6.90
2024-01-06T02:47:38.758Z,6.90
2024-01-06T02:50:07.058Z,6.90
2024-01-06T02:52:34.236Z,6.90
2024-01-06T02:55:02.308Z,6.90
2024-01-06T02:57:32.678Z,6.90
2024-01-06T02:59:59.789Z,6.90
2024-01-06T03:02:27.008Z,6.90
2024-01-06T03:04:56.063Z,6.90
2024-01-06T03:07:23.282Z,6.90
2024-01-06T03:09:50.376Z,6.90
2024-01-06T03:12:17.877Z,6.80
2024-01-06T03:14:44.930Z,6.90
2024-01-06T03:17:11.958Z,6.80
2024-01-06T03:19:40.215Z,6.90
2024-01-06T03:22:07.422Z,6.90
2024-01-06T03:24:34.665Z,6.90
2024-01-06T03:27:01.768Z,6.90
2024-01-06T03:29:29.560Z,6.90
2024-01-06T03:31:56.666Z,6.90
2024-01-06T03:34:23.858Z,6.90
2024-01-06T03:36:51.121Z,6.90
2024-01-06T03:43:17.644Z,6.80
2024-01-06T03:45:59.070Z,6.90
2024-01-06T03:48:28.385Z,6.80
2024-01-06T03:50:55.642Z,6.80
2024-01-06T03:53:25.322Z,6.90
2024-01-06T03:55:53.955Z,6.80
2024-01-06T03:58:21.096Z,6.80
2024-01-06T04:00:48.307Z,6.90
2024-01-06T04:03:15.592Z,6.80
2024-01-06T04:05:43.837Z,6.80
2024-01-06T04:08:10.938Z,6.90
2024-01-06T04:10:38.047Z,6.90
2024-01-06T04:13:05.722Z,6.80
2024-01-06T04:15:32.843Z,6.90
2024-01-06T04:18:04.808Z,6.80
2024-01-06T04:20:33.253Z,6.90
2024-01-06T04:23:00.530Z,6.90
2024-01-06T04:25:27.619Z,6.80
2024-01-06T04:27:54.889Z,6.80
2024-01-06T04:30:22.287Z,6.80
2024-01-06T04:32:49.745Z,6.80
2024-01-06T04:35:17.350Z,6.80
2024-01-06T04:37:44.433Z,6.80
2024-01-06T04:40:12.626Z,6.80
2024-01-06T04:42:40.092Z,6.80
2024-01-06T04:45:08.154Z,6.80
2024-01-06T04:47:35.428Z,6.80
2024-01-06T04:50:02.641Z,6.80
2024-01-06T04:52:31.854Z,6.80
2024-01-06T04:54:59.114Z,6.90
2024-01-06T04:57:26.308Z,6.90
2024-01-06T04:59:53.360Z,6.80
2024-01-06T05:02:20.681Z,6.90
2024-01-06T05:04:47.808Z,6.80
2024-01-06T05:07:15.028Z,6.80
2024-01-06T05:09:42.148Z,6.80
2024-01-06T05:12:09.650Z,6.80
2024-01-06T05:14:36.781Z,6.90
2024-01-06T05:17:03.943Z,6.80
2024-01-06T05:19:31.219Z,6.80
2024-01-06T05:22:02.276Z,6.80
2024-01-06T05:24:33.734Z,6.90
2024-01-06T05:27:01.940Z,6.80
2024-01-06T05:29:50.824Z,6.80
2024-01-06T05:32:18.867Z,6.80
2024-01-06T05:34:46.759Z,6.80
2024-01-06T05:37:14.091Z,6.80
2024-01-06T05:39:41.466Z,6.80
2024-01-06T05:42:14.030Z,6.80
2024-01-06T05:44:41.221Z,6.70
2024-01-06T05:47:09.645Z,6.70
2024-01-06T05:49:36.950Z,6.70
2024-01-06T05:52:04.273Z,6.70
2024-01-06T05:54:31.785Z,6.70
2024-01-06T05:56:59.062Z,6.70
2024-01-06T05:59:27.089Z,6.70
2024-01-06T06:01:54.139Z,6.70
2024-01-06T06:04:21.376Z,6.70
2024-01-06T06:06:48.560Z,6.80
2024-01-06T06:09:16.881Z,6.80
2024-01-06T06:11:44.276Z,6.80
2024-01-06T06:14:11.406Z,6.80
2024-01-06T06:16:38.482Z,6.80
2024-01-06T06:19:05.904Z,6.80
2024-01-06T06:21:33.251Z,6.80
2024-01-06T06:24:00.412Z,6.80
2024-01-06T06:26:29.534Z,6.80
2024-01-06T06:28:56.651Z,6.80
2024-01-06T06:31:23.774Z,6.70
2024-01-06T06:33:51.250Z,6.70
2024-01-06T06:36:18.374Z,6.70
2024-01-06T06:38:45.500Z,6.70
2024-01-06T06:41:12.615Z,6.70
2024-01-06T06:43:39.759Z,6.60
2024-01-06T06:46:06.954Z,6.60
2024-01-06T06:48:36.826Z,6.60
2024-01-06T06:51:04.542Z,6.60
2024-01-06T06:53:31.637Z,6.60
2024-01-06T06:55:58.719Z,6.70
2024-01-06T06:58:25.782Z,6.70
2024-01-06T07:00:54.179Z,6.70
2024-01-06T07:03:22.214Z,6.70
2024-01-06T07:05:50.457Z,6.70
2024-01-06T07:09:08.612Z,6.60
2024-01-06T07:11:35.657Z,6.70
2024-01-06T07:14:05.565Z,6.70
2024-01-06T07:16:32.626Z,6.70
2024-01-06T07:18:59.911Z,6.60
2024-01-06T07:21:26.990Z,6.60
2024-01-06T07:23:54.131Z,6.60
2024-01-06T07:26:21.183Z,6.70
2024-01-06T07:28:48.285Z,6.60
2024-01-06T07:31:16.201Z,6.60
2024-01-06T07:33:43.318Z,6.60
2024-01-06T07:36:10.433Z,6.60
2024-01-06T07:38:37.842Z,6.60
2024-01-06T07:41:07.546Z,6.60
2024-01-06T07:43:34.643Z,6.60
2024-01-06T07:46:01.885Z,6.60
2024-01-06T07:48:29.242Z,6.60
2024-01-06T07:50:56.249Z,6.60
2024-01-06T07:53:23.344Z,6.50
2024-01-06T07:55:50.472Z,6.50
2024-01-06T07:58:18.457Z,6.50
2024-01-06T08:00:46.581Z,6.50
2024-01-06T08:03:13.699Z,6.50
2024-01-06T08:05:41.028Z,6.50
2024-01-06T08:08:08.276Z,6.50
2024-01-06T08:10:35.346Z,6.40
2024-01-06T08:13:03.746Z,6.40
2024-01-06T08:15:31.109Z,6.40
2024-01-06T08:17:58.249Z,6.40
2024-01-06T08:20:25.473Z,6.40
2024-01-06T08:22:52.730Z,6.40
2024-01-06T08:25:19.817Z,6.40
2024-01-06T08:27:49.055Z,6.40
2024-01-06T08:30:16.376Z,6.40
2024-01-06T08:32:43.820Z,6.40
2024-01-06T08:35:11.269Z,6.40
2024-01-06T08:37:38.249Z,6.40
2024-01-06T08:40:07.023Z,6.40
2024-01-06T08:42:34.264Z,6.40
2024-01-06T08:45:01.807Z,6.40
2024-01-06T08:47:28.874Z,6.40
2024-01-06T08:50:44.398Z,6.40
2024-01-06T08:54:14.945Z,6.40
2024-01-06T08:56:51.048Z,6.40
2024-01-06T08:59:18.347Z,6.40
2024-01-06T09:01:47.902Z,6.40
2024-01-06T09:04:16.707Z,6.50
2024-01-06T09:06:43.857Z,6.40
2024-01-06T09:09:12.049Z,6.50
2024-01-06T09:11:41.896Z,6.50
2024-01-06T09:14:08.979Z,6.50
2024-01-06T09:16:36.043Z,6.50
2024-01-06T09:19:03.228Z,6.50
2024-01-06T09:21:30.339Z,6.50
2024-01-06T09:23:57.394Z,6.50
2024-01-06T09:26:24.438Z,6.50
2024-01-06T09:28:51.542Z,6.50
2024-01-06T09:31:18.632Z,6.50
2024-01-06T09:33:45.849Z,6.50
2024-01-06T09:36:15.220Z,6.50
2024-01-06T09:38:42.454Z,6.50
2024-01-06T09:41:09.682Z,6.50
2024-01-06T09:43:37.523Z,6.50
2024-01-06T09:46:33.174Z,6.40
2024-01-06T09:49:01.266Z,6.40
2024-01-06T09:51:28.693Z,6.40
2024-01-06T09:54:08.693Z,6.40
2024-01-06T09:56:36.353Z,6.50
2024-01-06T09:59:03.466Z,6.50
2024-01-06T10:01:30.803Z,6.50
2024-01-06T10:03:58.082Z,6.50
2024-01-06T10:06:25.331Z,6.50
2024-01-06T10:08:54.466Z,6.50
2024-01-06T10:11:23.817Z,6.50
2024-01-06T10:13:52.397Z,6.60
2024-01-06T10:16:20.672Z,6.60
2024-01-06T10:18:52.521Z,6.60
2024-01-06T10:21:23.962Z,6.60
2024-01-06T10:23:52.344Z,6.60
2024-01-06T10:26:20.512Z,6.60
2024-01-06T10:28:51.269Z,6.60
2024-01-06T10:31:20.595Z,6.60
2024-01-06T10:34:30.330Z,6.50
2024-01-06T10:37:30.429Z,6.50
2024-01-06T10:40:11.255Z,6.50
2024-01-06T10:42:40.943Z,6.50
2024-01-06T10:45:11.086Z,6.60
2024-01-06T10:47:39.764Z,6.60
2024-01-06T10:50:09.339Z,6.60
2024-01-06T10:52:38.911Z,6.60
2024-01-06T10:55:07.427Z,6.60
2024-01-06T10:57:35.812Z,6.60
2024-01-06T11:00:03.376Z,6.50
2024-01-06T11:02:32.963Z,6.50
2024-01-06T11:05:00.263Z,6.50
2024-01-06T11:07:28.535Z,6.40
2024-01-06T11:10:20.182Z,6.30
2024-01-06T11:13:08.983Z,6.20
2024-01-06T11:15:50.969Z,6.10
2024-01-06T11:18:39.411Z,6.10
2024-01-06T11:21:15.766Z,6.10
2024-01-06T11:23:42.864Z,6.10
2024-01-06T11:26:10.716Z,6.10
2024-01-06T11:28:48.284Z,6.10
2024-01-06T11:31:15.895Z,6.10
2024-01-06T11:33:50.324Z,6.10
2024-01-06T11:36:18.283Z,6.10
2024-01-06T11:38:51.650Z,6.10
2024-01-06T11:41:52.324Z,6.10
2024-01-06T11:44:23.934Z,6.10
2024-01-06T11:46:52.119Z,6.10
2024-01-06T11:49:22.344Z,6.10
2024-01-06T11:51:50.777Z,6.20
2024-01-06T11:54:18.213Z,6.20
2024-01-06T11:56:45.736Z,6.20
2024-01-06T11:59:13.516Z,6.20
2024-01-06T12:01:41.968Z,6.40
2024-01-06T12:04:09.252Z,6.40
2024-01-06T12:06:42.487Z,6.50
2024-01-06T12:09:15.527Z,6.50
2024-01-06T12:11:46.321Z,6.40
2024-01-06T12:14:14.685Z,6.40
2024-01-06T12:17:21.414Z,6.30
2024-01-06T12:20:44.111Z,6.20
2024-01-06T12:23:11.299Z,6.20
2024-01-06T12:25:41.087Z,6.20
2024-01-06T12:28:09.052Z,6.20
2024-01-06T12:30:37.269Z,6.20
2024-01-06T12:33:06.039Z,6.20
2024-01-06T12:35:36.023Z,6.20
2024-01-06T12:38:08.606Z,6.20
2024-01-06T12:40:42.656Z,6.30
2024-01-06T12:43:10.365Z,6.30
2024-01-06T12:45:37.729Z,6.40
2024-01-06T12:48:05.357Z,6.40
2024-01-06T12:50:32.581Z,6.40
2024-01-06T12:52:59.621Z,6.40
2024-01-06T12:55:26.911Z,6.40
2024-01-06T12:57:54.153Z,6.40
2024-01-06T13:00:21.603Z,6.30
2024-01-06T13:02:48.804Z,6.30
2024-01-06T13:05:16.942Z,6.30
2024-01-06T13:07:44.192Z,6.30
2024-01-06T13:10:11.534Z,6.30
2024-01-06T13:12:39.561Z,6.30
2024-01-06T13:15:12.366Z,6.30
2024-01-06T13:17:39.771Z,6.30
2024-01-06T13:20:09.286Z,6.30
2024-01-06T13:22:36.472Z,6.30
2024-01-06T13:25:04.198Z,6.20
2024-01-06T13:27:31.237Z,6.20
2024-01-06T13:29:58.366Z,6.20
2024-01-06T13:32:25.450Z,6.20
2024-01-06T13:34:55.493Z,6.20
2024-01-06T13:37:25.400Z,6.30
2024-01-06T13:39:52.702Z,6.30
2024-01-06T13:42:22.714Z,6.30
2024-01-06T13:44:50.374Z,6.30
2024-01-06T13:47:18.354Z,6.30
2024-01-06T13:49:45.631Z,6.40
2024-01-06T13:52:15.866Z,6.40
2024-01-06T13:54:43.348Z,6.40
2024-01-06T13:57:11.753Z,6.40
2024-01-06T13:59:43.524Z,6.40
2024-01-06T14:02:55.763Z,6.40
2024-01-06T14:05:29.795Z,6.40
2024-01-06T14:07:56.931Z,6.40
2024-01-06T14:10:24.098Z,6.50
2024-01-06T14:12:51.225Z,6.50
2024-01-06T14:15:18.512Z,6.50
2024-01-06T14:17:50.856Z,6.50
2024-01-06T14:20:19.626Z,6.50
2024-01-06T14:22:47.973Z,6.50
2024-01-06T14:25:16.648Z,6.50
2024-01-06T14:27:44.443Z,6.50
2024-01-06T14:30:12.172Z,6.60
2024-01-06T14:32:39.789Z,6.60
2024-01-06T14:35:07.768Z,6.60
2024-01-06T14:37:35.040Z,6.60
2024-01-06T14:40:06.622Z,6.60
2024-01-06T14:42:33.979Z,6.60
2024-01-06T14:45:01.228Z,6.70
2024-01-06T14:47:28.360Z,6.60
2024-01-06T14:49:55.653Z,6.60
2024-01-06T14:52:22.944Z,6.60
2024-01-06T14:54:50.605Z,6.60
2024-01-06T14:57:17.778Z,6.60
2024-01-06T14:59:44.855Z,6.50
2024-01-06T15:02:11.972Z,6.50
2024-01-06T15:04:40.163Z,6.50
2024-01-06T15:07:07.350Z,6.40
2024-01-06T15:09:34.560Z,6.40
2024-01-06T15:12:01.704Z,6.30
2024-01-06T15:14:28.723Z,6.30
2024-01-06T15:16:55.840Z,6.20
2024-01-06T15:19:25.045Z,6.10
2024-01-06T15:21:52.229Z,6.10
2024-01-06T15:24:19.412Z,6.10
2024-01-06T15:26:46.462Z,6.00
2024-01-06T15:29:13.964Z,6.00
2024-01-06T15:31:41.128Z,6.00
2024-01-06T15:34:08.481Z,6.00
2024-01-06T15:36:36.908Z,6.00
2024-01-06T15:39:04.079Z,5.90
2024-01-06T15:41:31.463Z,5.90
2024-01-06T15:43:59.569Z,5.80
2024-01-06T15:46:44.280Z,5.80
2024-01-06T15:49:21.183Z,5.80
2024-01-06T15:51:48.390Z,5.80
2024-01-06T15:54:15.578Z,5.80
2024-01-06T15:56:42.609Z,5.80
2024-01-06T15:59:09.731Z,5.80
2024-01-06T16:01:36.909Z,5.80
2024-01-06T16:04:04.292Z,5.70
2024-01-06T16:06:34.556Z,5.70
2024-01-06T16:09:03.460Z,5.80
2024-01-06T16:11:30.520Z,5.80
2024-01-06T16:13:57.540Z,5.80
2024-01-06T16:16:29.608Z,5.80
2024-01-06T16:18:56.907Z,5.80
2024-01-06T16:21:25.612Z,5.70
2024-01-06T16:23:53.120Z,5.70
2024-01-06T16:26:20.407Z,5.70
2024-01-06T16:28:47.621Z,5.70
2024-01-06T16:31:14.770Z,5.70
2024-01-06T16:33:42.073Z,5.60
2024-01-06T16:36:11.584Z,5.60
2024-01-06T16:38:38.980Z,5.60
2024-01-06T16:41:06.286Z,5.60
2024-01-06T16:43:39.756Z,5.60
2024-01-06T16:46:07.528Z,5.60
2024-01-06T16:48:35.072Z,5.50
2024-01-06T16:51:02.300Z,5.60
2024-01-06T16:53:29.647Z,5.50
2024-01-06T16:55:58.109Z,5.50
2024-01-06T16:58:25.281Z,5.50
2024-01-06T17:00:53.457Z,5.50
2024-01-06T17:03:22.011Z,5.50
2024-01-06T17:05:49.229Z,5.50
2024-01-06T17:08:16.316Z,5.50
2024-01-06T17:10:43.478Z,5.50
2024-01-06T17:13:10.674Z,5.50
2024-01-06T17:15:38.348Z,5.50
2024-01-06T17:18:07.886Z,5.40
2024-01-06T17:20:39.363Z,5.30
2024-01-06T17:23:06.868Z,5.20
2024-01-06T17:25:35.258Z,5.10
2024-01-06T17:28:43.515Z,5.10
2024-01-06T17:35:10.674Z,4.90
2024-01-06T17:37:38.001Z,4.90
2024-01-06T17:40:06.547Z,4.90
2024-01-06T17:42:35.023Z,4.90
2024-01-06T17:45:04.512Z,4.90
2024-01-06T17:47:33.079Z,4.90
2024-01-06T17:50:00.395Z,4.90
2024-01-06T17:52:28.619Z,4.90
2024-01-06T17:54:56.744Z,4.90
2024-01-06T17:57:23.875Z,4.90
2024-01-06T17:59:53.640Z,4.90
2024-01-06T18:02:20.737Z,4.90
2024-01-06T18:04:48.308Z,4.80
2024-01-06T18:07:15.588Z,4.80
2024-01-06T18:09:42.826Z,4.80
2024-01-06T18:12:10.694Z,4.80
2024-01-06T18:14:39.148Z,4.70
2024-01-06T18:17:07.630Z,4.70
2024-01-06T18:19:34.822Z,4.70
2024-01-06T18:22:02.032Z,4.70
2024-01-06T18:24:31.875Z,4.60
2024-01-06T18:27:00.064Z,4.70
2024-01-06T18:29:27.194Z,4.60
2024-01-06T18:31:54.339Z,4.70
2024-01-06T18:34:21.666Z,4.60
2024-01-06T18:36:49.029Z,4.70
2024-01-06T18:39:16.238Z,4.60
2024-01-06T18:41:43.364Z,4.60
2024-01-06T18:44:11.597Z,4.60
2024-01-06T18:46:39.481Z,4.60
2024-01-06T18:49:07.850Z,4.60
2024-01-06T18:51:38.506Z,4.60
2024-01-06T18:54:12.546Z,4.60
2024-01-06T18:56:43.523Z,4.60
2024-01-06T18:59:10.656Z,4.60
2024-01-06T19:01:37.808Z,4.60
2024-01-06T19:04:05.217Z,4.50
2024-01-06T19:06:32.844Z,4.50
2024-01-06T19:09:00.000Z,4.50
2024-01-06T19:11:38.773Z,4.50
2024-01-06T19:15:09.169Z,4.50
2024-01-06T19:17:38.670Z,4.60
2024-01-06T19:20:07.188Z,4.60
2024-01-06T19:22:34.431Z,4.60
2024-01-06T19:25:01.497Z,4.50
2024-01-06T19:27:28.751Z,4.60
2024-01-06T19:29:55.896Z,4.60
2024-01-06T19:32:23.075Z,4.60
2024-01-06T19:34:55.178Z,4.60
2024-01-06T19:37:22.613Z,4.60
2024-01-06T19:39:49.762Z,4.70
2024-01-06T19:42:17.350Z,4.60
2024-01-06T19:44:45.264Z,4.70
2024-01-06T19:47:13.628Z,4.70
2024-01-06T19:49:40.802Z,4.70
2024-01-06T19:52:08.063Z,4.60
2024-01-06T19:54:37.674Z,4.60
2024-01-06T19:57:05.929Z,4.70
2024-01-06T19:59:33.034Z,4.70
2024-01-06T20:02:00.274Z,4.70
2024-01-06T20:04:28.019Z,4.70
2024-01-06T20:06:55.511Z,4.70
2024-01-06T20:09:22.726Z,4.70
2024-01-06T20:11:49.784Z,4.70
2024-01-06T20:14:16.987Z,4.70
2024-01-06T20:16:44.238Z,4.70
2024-01-06T20:19:12.405Z,4.70
2024-01-06T20:21:39.491Z,4.70
2024-01-06T20:24:06.923Z,4.70
2024-01-06T20:26:33.973Z,4.70
2024-01-06T20:29:01.109Z,4.80
2024-01-06T20:31:28.306Z,4.70
2024-01-06T20:33:55.899Z,4.70
2024-01-06T20:36:23.149Z,4.70
2024-01-06T20:38:52.972Z,4.70
2024-01-06T20:41:20.161Z,4.70
2024-01-06T20:43:47.381Z,4.70
2024-01-06T20:46:20.838Z,4.70
2024-01-06T20:48:48.618Z,4.70
2024-01-06T20:51:19.617Z,4.70
2024-01-06T20:53:52.746Z,4.70
2024-01-06T20:57:00.656Z,4.70
2024-01-06T20:59:50.052Z,4.70
2024-01-06T21:02:18.729Z,4.70
2024-01-06T21:04:45.977Z,4.70
2024-01-06T21:07:13.175Z,4.70
2024-01-06T21:09:41.899Z,4.70
2024-01-06T21:12:09.286Z,4.70
2024-01-06T21:14:38.042Z,4.70
2024-01-06T21:17:05.469Z,4.70
2024-01-06T21:19:33.470Z,4.70
2024-01-06T21:22:00.930Z,4.70
2024-01-06T21:24:29.218Z,4.70
2024-01-06T21:26:56.508Z,4.60
2024-01-06T21:29:24.031Z,4.60
2024-01-06T21:31:51.292Z,4.60
2024-01-06T21:34:21.638Z,4.60
2024-01-06T21:36:51.082Z,4.60
2024-01-06T21:39:18.164Z,4.60
2024-01-06T21:41:46.787Z,4.60
2024-01-06T21:44:13.975Z,4.60
2024-01-06T21:46:41.362Z,4.60
2024-01-06T21:49:08.513Z,4.60
2024-01-06T21:51:51.384Z,4.60
2024-01-06T21:54:19.201Z,4.60
2024-01-06T21:56:49.514Z,4.60
2024-01-06T21:59:16.725Z,4.60
2024-01-06T22:01:45.116Z,4.60
2024-01-06T22:04:13.596Z,4.60
2024-01-06T22:06:40.880Z,4.50
2024-01-06T22:09:11.515Z,4.60
2024-01-06T22:11:42.210Z,4.50
2024-01-06T22:14:09.335Z,4.50
2024-01-06T22:16:36.538Z,4.50
2024-01-06T22:19:05.322Z,4.40
2024-01-06T22:21:33.306Z,4.30
2024-01-06T22:24:00.635Z,4.30
2024-01-06T22:26:30.120Z,4.20
2024-01-06T22:28:57.331Z,4.20
2024-01-06T22:31:24.524Z,4.20
2024-01-06T22:33:51.785Z,4.10
2024-01-06T22:36:18.957Z,4.10
2024-01-06T22:39:54.992Z,4.10
2024-01-06T22:43:01.145Z,4.10
2024-01-06T22:45:42.073Z,4.10
2024-01-06T22:48:09.407Z,4.10
2024-01-06T22:50:36.586Z,4.10
2024-01-06T22:53:05.600Z,4.10
2024-01-06T22:55:32.749Z,4.10
2024-01-06T22:58:00.018Z,4.10
2024-01-06T23:00:29.275Z,4.10
2024-01-06T23:02:57.888Z,4.10
2024-01-06T23:05:24.971Z,4.10
2024-01-06T23:07:52.143Z,4.00
2024-01-06T23:10:19.816Z,4.00
2024-01-06T23:12:49.002Z,3.80
2024-01-06T23:15:17.360Z,3.70
2024-01-06T23:17:44.855Z,3.70
2024-01-06T23:20:13.781Z,3.60
2024-01-06T23:22:41.985Z,3.60
2024-01-06T23:25:09.434Z,3.60
2024-01-06T23:27:36.639Z,3.50
2024-01-06T23:30:05.486Z,3.40
2024-01-06T23:32:32.748Z,3.30
2024-01-06T23:34:59.881Z,3.20
2024-01-06T23:37:27.082Z,3.20
2024-01-06T23:39:54.279Z,3.20
2024-01-06T23:42:23.276Z,3.10
2024-01-06T23:44:53.984Z,3.00
2024-01-06T23:47:21.203Z,3.00
2024-01-06T23:49:48.393Z,2.90
2024-01-06T23:52:15.462Z,2.90
2024-01-06T23:54:43.000Z,2.90
2024-01-06T23:57:10.107Z,2.90
2024-01-06T23:59:41.293Z,2.90
